Time,TemperatureF,DewpointF,PressureIn,WindDirection,WindDirectionDegrees,WindSpeedMPH,WindSpeedGustMPH,Humidity,HourlyPrecipIn,Conditions,Clouds,dailyrainin,SoftwareType,DateUTC
2013-04-06 00:00:00,34.7,33.2,29.99,East,98,7.0,7.0,94,0.00,,,0.01,Wunderground v.1.15,2013-04-06 05:00:00,
2013-04-06 00:30:00,35.0,32.9,29.98,ESE,121,9.0,9.0,92,0.00,,,0.00,Wunderground v.1.15,2013-04-06 05:30:00,
2013-04-06 01:00:00,35.0,32.6,29.97,ESE,102,8.0,12.0,91,0.00,,,0.00,Wunderground v.1.15,2013-04-06 06:00:00,
2013-04-06 01:30:00,35.2,32.3,29.95,ESE,114,10.0,10.0,89,0.00,,,0.00,Wunderground v.1.15,2013-04-06 06:30:00,
2013-04-06 02:00:00,35.3,31.8,29.94,ESE,112,11.0,11.0,87,0.00,,,0.00,Wunderground v.1.15,2013-04-06 07:00:00,
2013-04-06 03:00:00,35.5,30.2,29.92,ESE,113,12.0,12.0,81,0.00,,,0.00,Wunderground v.1.15,2013-04-06 08:00:00,
2013-04-06 03:30:00,35.2,29.3,29.90,ESE,115,12.0,12.0,79,0.00,,,0.00,Wunderground v.1.15,2013-04-06 08:30:00,
2013-04-06 04:00:00,35.2,28.7,29.87,SE,138,12.0,12.0,77,0.00,,,0.00,Wunderground v.1.15,2013-04-06 09:00:00,
2013-04-06 04:30:00,35.0,27.5,29.86,ESE,107,10.0,18.0,74,0.00,,,0.00,Wunderground v.1.15,2013-04-06 09:30:00,
2013-04-06 05:00:00,34.9,25.8,29.86,SSE,153,10.0,10.0,69,0.00,,,0.00,Wunderground v.1.15,2013-04-06 10:00:00,
2013-04-06 05:30:00,34.6,24.0,29.84,ESE,123,9.0,15.0,65,0.00,,,0.00,Wunderground v.1.15,2013-04-06 10:30:00,
2013-04-06 06:00:00,34.3,22.6,29.82,ESE,117,10.0,13.0,62,0.00,,,0.00,Wunderground v.1.15,2013-04-06 11:00:00,
2013-04-06 06:30:00,34.3,22.2,29.81,SE,132,7.0,9.0,61,0.00,,,0.00,Wunderground v.1.15,2013-04-06 11:30:00,
2013-04-06 07:00:00,34.1,22.0,29.80,ESE,117,6.0,6.0,61,0.00,,,0.00,Wunderground v.1.15,2013-04-06 12:00:00,
2013-04-06 07:30:00,34.3,22.2,29.79,ESE,115,7.0,12.0,61,0.00,,,0.00,Wunderground v.1.15,2013-04-06 12:30:00,
2013-04-06 08:00:00,34.1,22.4,29.78,ESE,108,9.0,9.0,62,0.00,,,0.00,Wunderground v.1.15,2013-04-06 13:00:00,
2013-04-06 08:30:00,34.6,22.5,29.76,ESE,118,9.0,9.0,61,0.00,,,0.00,Wunderground v.1.15,2013-04-06 13:30:00,
2013-04-06 09:00:00,35.2,22.3,29.74,ESE,112,10.0,14.0,59,0.00,,,0.00,Wunderground v.1.15,2013-04-06 14:00:00,
2013-04-06 09:30:00,36.0,21.8,29.72,ESE,117,10.0,10.0,56,0.00,,,0.00,Wunderground v.1.15,2013-04-06 14:30:00,
2013-04-06 10:00:00,37.3,22.2,29.70,SE,134,9.0,9.0,54,0.00,,,0.00,Wunderground v.1.15,2013-04-06 15:00:00,
2013-04-06 10:30:00,38.8,22.7,29.68,SE,128,8.0,8.0,52,0.00,,,0.00,Wunderground v.1.15,2013-04-06 15:30:00,
2013-04-06 11:00:00,40.5,23.3,29.67,SE,141,10.0,13.0,50,0.00,,,0.00,Wunderground v.1.15,2013-04-06 16:00:00,
2013-04-06 11:30:00,41.9,23.6,29.64,SE,128,10.0,15.0,48,0.00,,,0.00,Wunderground v.1.15,2013-04-06 16:30:00,
2013-04-06 12:01:00,42.9,24.5,29.63,SSE,167,12.0,12.0,48,0.00,,,0.00,Wunderground v.1.15,2013-04-06 17:01:00,
2013-04-06 12:30:00,43.9,26.0,29.61,SE,146,8.0,8.0,49,0.00,,,0.00,Wunderground v.1.15,2013-04-06 17:30:00,
2013-04-06 13:00:00,45.7,27.1,29.60,SE,129,7.0,9.0,48,0.00,,,0.00,Wunderground v.1.15,2013-04-06 18:00:00,
2013-04-06 13:30:00,47.6,28.9,29.58,SE,146,7.0,7.0,48,0.00,,,0.00,Wunderground v.1.15,2013-04-06 18:30:00,
2013-04-06 14:30:00,47.9,30.1,29.56,ESE,115,5.0,5.0,50,0.00,,,0.00,Wunderground v.1.15,2013-04-06 19:30:00,
2013-04-06 15:00:00,47.9,30.1,29.54,ESE,121,6.0,6.0,50,0.00,,,0.00,Wunderground v.1.15,2013-04-06 20:00:00,
2013-04-06 15:30:00,46.8,31.0,29.52,East,82,6.0,6.0,54,0.00,,,0.00,Wunderground v.1.15,2013-04-06 20:30:00,
2013-04-06 16:00:00,46.8,31.5,29.50,ESE,111,4.0,7.0,55,0.00,,,0.00,Wunderground v.1.15,2013-04-06 21:00:00,
2013-04-06 16:30:00,46.8,31.5,29.49,ESE,109,4.0,4.0,55,0.00,,,0.00,Wunderground v.1.15,2013-04-06 21:30:00,
2013-04-06 17:00:00,46.2,33.9,29.48,ESE,109,2.0,2.0,62,0.00,,,0.00,Wunderground v.1.15,2013-04-06 22:00:00,
2013-04-06 17:30:00,44.3,37.9,29.47,ESE,109,1.0,1.0,78,0.00,,,0.01,Wunderground v.1.15,2013-04-06 22:30:00,
2013-04-06 18:00:00,42.5,38.9,29.47,East,85,3.0,4.0,87,0.06,,,0.03,Wunderground v.1.15,2013-04-06 23:00:00,
2013-04-06 18:30:00,41.6,39.4,29.47,East,85,3.0,3.0,92,0.06,,,0.06,Wunderground v.1.15,2013-04-06 23:30:00,
2013-04-06 19:00:00,39.5,38.2,29.48,NW,325,5.0,7.0,95,0.05,,,0.08,Wunderground v.1.15,2013-04-07 00:00:00,
2013-04-06 19:30:00,38.8,37.5,29.52,NW,319,8.0,9.0,95,0.05,,,0.10,Wunderground v.1.15,2013-04-07 00:30:00,
2013-04-06 20:30:00,38.6,37.0,29.55,West,275,6.0,6.0,94,0.05,,,0.13,Wunderground v.1.15,2013-04-07 01:30:00,
2013-04-06 21:00:00,38.5,37.2,29.57,West,275,6.0,7.0,95,0.05,,,0.15,Wunderground v.1.15,2013-04-07 02:00:00,